sensor_id;sensor_type;location;lat;lon;timestamp;temperature;humidity
14670;DHT22;7423;48.722;9.350;2022-10-17T00:00:54;16.90;99.90
14670;DHT22;7423;48.722;9.350;2022-10-17T00:03:21;16.40;99.90
14670;DHT22;7423;48.722;9.350;2022-10-17T00:05:48;16.40;99.90
14670;DHT22;7423;48.722;9.350;2022-10-17T00:08:16;16.40;99.90
14670;DHT22;7423;48.722;9.350;2022-10-17T00:10:44;16.30;99.90
14670;DHT22;7423;48.722;9.350;2022-10-17T00:13:11;16.30;99.90
14670;DHT22;7423;48.722;9.350;2022-10-17T00:15:42;16.30;99.90
14670;DHT22;7423;48.722;9.350;2022-10-17T00:18:10;16.20;99.90
14670;DHT22;7423;48.722;9.350;2022-10-17T00:20:37;16.30;99.90
14670;DHT22;7423;48.722;9.350;2022-10-17T00:23:04;16.20;99.90
14670;DHT22;7423;48.722;9.350;2022-10-17T00:25:31;16.30;99.90
14670;DHT22;7423;48.722;9.350;2022-10-17T00:27:57;16.20;99.90
14670;DHT22;7423;48.722;9.350;2022-10-17T00:30:24;16.10;99.90
14670;DHT22;7423;48.722;9.350;2022-10-17T00:32:51;16.20;99.90
14670;DHT22;7423;48.722;9.350;2022-10-17T00:35:18;16.20;99.90
14670;DHT22;7423;48.722;9.350;2022-10-17T00:37:45;16.10;99.90
14670;DHT22;7423;48.722;9.350;2022-10-17T00:40:11;16.20;99.90
14670;DHT22;7423;48.722;9.350;2022-10-17T00:42:38;16.20;99.90
14670;DHT22;7423;48.722;9.350;2022-10-17T00:45:18;16.10;99.90
14670;DHT22;7423;48.722;9.350;2022-10-17T00:48:08;16.10;99.90
14670;DHT22;7423;48.722;9.350;2022-10-17T00:50:39;16.10;99.90
14670;DHT22;7423;48.722;9.350;2022-10-17T00:53:07;16.00;99.90
14670;DHT22;7423;48.722;9.350;2022-10-17T00:55:38;16.00;99.90
14670;DHT22;7423;48.722;9.350;2022-10-17T00:58:09;16.00;99.90
14670;DHT22;7423;48.722;9.350;2022-10-17T01:00:36;16.00;99.90
14670;DHT22;7423;48.722;9.350;2022-10-17T01:03:03;15.90;99.90
14670;DHT22;7423;48.722;9.350;2022-10-17T01:05:30;15.80;99.90
14670;DHT22;7423;48.722;9.350;2022-10-17T01:07:57;15.90;99.90
14670;DHT22;7423;48.722;9.350;2022-10-17T01:10:41;15.90;99.90
14670;DHT22;7423;48.722;9.350;2022-10-17T01:13:24;15.90;99.90
14670;DHT22;7423;48.722;9.350;2022-10-17T01:22:22;15.80;99.90
14670;DHT22;7423;48.722;9.350;2022-10-17T01:27:36;15.70;99.90
14670;DHT22;7423;48.722;9.350;2022-10-17T01:32:53;15.70;99.90
14670;DHT22;7423;48.722;9.350;2022-10-17T01:38:13;15.70;99.90
14670;DHT22;7423;48.722;9.350;2022-10-17T01:40:49;15.70;99.90
14670;DHT22;7423;48.722;9.350;2022-10-17T01:43:28;15.70;99.90
14670;DHT22;7423;48.722;9.350;2022-10-17T01:46:15;15.70;99.90
14670;DHT22;7423;48.722;9.350;2022-10-17T01:48:48;15.60;99.90
14670;DHT22;7423;48.722;9.350;2022-10-17T01:51:19;15.60;99.90
14670;DHT22;7423;48.722;9.350;2022-10-17T01:53:56;15.60;99.90
14670;DHT22;7423;48.722;9.350;2022-10-17T01:56:29;15.60;99.90
14670;DHT22;7423;48.722;9.350;2022-10-17T01:59:06;15.60;99.90
14670;DHT22;7423;48.722;9.350;2022-10-17T02:05:44;15.60;99.90
14670;DHT22;7423;48.722;9.350;2022-10-17T02:08:12;15.60;99.90
14670;DHT22;7423;48.722;9.350;2022-10-17T02:11:01;15.60;99.90
14670;DHT22;7423;48.722;9.350;2022-10-17T02:16:34;15.50;99.90
14670;DHT22;7423;48.722;9.350;2022-10-17T02:19:33;15.40;99.90
14670;DHT22;7423;48.722;9.350;2022-10-17T02:22:19;15.40;99.90
14670;DHT22;7423;48.722;9.350;2022-10-17T02:25:11;15.40;99.90
14670;DHT22;7423;48.722;9.350;2022-10-17T02:27:58;15.30;99.90
14670;DHT22;7423;48.722;9.350;2022-10-17T02:30:43;15.30;99.90
14670;DHT22;7423;48.722;9.350;2022-10-17T02:33:17;15.30;99.90
14670;DHT22;7423;48.722;9.350;2022-10-17T02:35:51;15.20;99.90
14670;DHT22;7423;48.722;9.350;2022-10-17T02:38:20;15.30;99.90
14670;DHT22;7423;48.722;9.350;2022-10-17T02:40:50;15.30;99.90
14670;DHT22;7423;48.722;9.350;2022-10-17T02:43:19;15.30;99.90
14670;DHT22;7423;48.722;9.350;2022-10-17T02:45:47;15.30;99.90
14670;DHT22;7423;48.722;9.350;2022-10-17T02:48:24;15.20;99.90
14670;DHT22;7423;48.722;9.350;2022-10-17T02:51:09;15.30;99.90
14670;DHT22;7423;48.722;9.350;2022-10-17T02:56:59;15.20;99.90
14670;DHT22;7423;48.722;9.350;2022-10-17T02:59:30;15.30;99.90
14670;DHT22;7423;48.722;9.350;2022-10-17T03:02:05;15.20;99.90
14670;DHT22;7423;48.722;9.350;2022-10-17T03:04:33;15.20;99.90
14670;DHT22;7423;48.722;9.350;2022-10-17T03:07:00;15.10;99.90
14670;DHT22;7423;48.722;9.350;2022-10-17T03:09:27;15.20;99.90
14670;DHT22;7423;48.722;9.350;2022-10-17T03:11:54;15.10;99.90
14670;DHT22;7423;48.722;9.350;2022-10-17T03:14:21;15.10;99.90
14670;DHT22;7423;48.722;9.350;2022-10-17T03:16:47;15.10;99.90
14670;DHT22;7423;48.722;9.350;2022-10-17T03:19:14;15.10;99.90
14670;DHT22;7423;48.722;9.350;2022-10-17T03:21:41;15.10;99.90
14670;DHT22;7423;48.722;9.350;2022-10-17T03:24:08;15.10;99.90
14670;DHT22;7423;48.722;9.350;2022-10-17T03:26:35;15.00;99.90
14670;DHT22;7423;48.722;9.350;2022-10-17T03:29:02;15.20;99.90
14670;DHT22;7423;48.722;9.350;2022-10-17T03:31:29;15.20;99.90
14670;DHT22;7423;48.722;9.350;2022-10-17T03:33:56;15.20;99.90
14670;DHT22;7423;48.722;9.350;2022-10-17T03:36:23;15.30;99.90
14670;DHT22;7423;48.722;9.350;2022-10-17T03:38:53;15.20;99.90
14670;DHT22;7423;48.722;9.350;2022-10-17T03:41:20;15.20;99.90
14670;DHT22;7423;48.722;9.350;2022-10-17T03:43:47;15.20;99.90
14670;DHT22;7423;48.722;9.350;2022-10-17T03:46:14;15.20;99.90
14670;DHT22;7423;48.722;9.350;2022-10-17T03:48:41;15.20;99.90
14670;DHT22;7423;48.722;9.350;2022-10-17T03:51:08;15.10;99.90
14670;DHT22;7423;48.722;9.350;2022-10-17T03:53:35;15.10;99.90
14670;DHT22;7423;48.722;9.350;2022-10-17T03:56:13;15.10;99.90
14670;DHT22;7423;48.722;9.350;2022-10-17T03:58:45;15.10;99.90
14670;DHT22;7423;48.722;9.350;2022-10-17T04:01:13;15.00;99.90
14670;DHT22;7423;48.722;9.350;2022-10-17T04:03:41;15.00;99.90
14670;DHT22;7423;48.722;9.350;2022-10-17T04:06:11;15.00;99.90
14670;DHT22;7423;48.722;9.350;2022-10-17T04:08:38;15.00;99.90
14670;DHT22;7423;48.722;9.350;2022-10-17T04:11:06;15.00;99.90
14670;DHT22;7423;48.722;9.350;2022-10-17T04:13:34;15.00;99.90
14670;DHT22;7423;48.722;9.350;2022-10-17T04:16:04;15.00;99.90
14670;DHT22;7423;48.722;9.350;2022-10-17T04:18:32;15.00;99.90
14670;DHT22;7423;48.722;9.350;2022-10-17T04:21:03;15.10;99.90
14670;DHT22;7423;48.722;9.350;2022-10-17T04:23:32;14.90;99.90
14670;DHT22;7423;48.722;9.350;2022-10-17T04:26:00;14.90;99.90
14670;DHT22;7423;48.722;9.350;2022-10-17T04:28:29;14.90;99.90
14670;DHT22;7423;48.722;9.350;2022-10-17T04:31:10;15.00;99.90
14670;DHT22;7423;48.722;9.350;2022-10-17T04:33:40;14.90;99.90
14670;DHT22;7423;48.722;9.350;2022-10-17T04:36:10;14.90;99.90
14670;DHT22;7423;48.722;9.350;2022-10-17T04:38:38;14.90;99.90
14670;DHT22;7423;48.722;9.350;2022-10-17T04:41:09;14.90;99.90
14670;DHT22;7423;48.722;9.350;2022-10-17T04:43:38;14.90;99.90
14670;DHT22;7423;48.722;9.350;2022-10-17T04:46:10;15.00;99.90
14670;DHT22;7423;48.722;9.350;2022-10-17T04:48:38;14.90;99.90
14670;DHT22;7423;48.722;9.350;2022-10-17T04:51:09;14.90;99.90
14670;DHT22;7423;48.722;9.350;2022-10-17T04:53:38;14.90;99.90
14670;DHT22;7423;48.722;9.350;2022-10-17T04:56:17;14.90;99.90
14670;DHT22;7423;48.722;9.350;2022-10-17T04:58:46;15.00;99.90
14670;DHT22;7423;48.722;9.350;2022-10-17T05:01:16;14.90;99.90
14670;DHT22;7423;48.722;9.350;2022-10-17T05:03:45;14.90;99.90
14670;DHT22;7423;48.722;9.350;2022-10-17T05:06:15;15.00;99.90
14670;DHT22;7423;48.722;9.350;2022-10-17T05:08:44;14.90;99.90
14670;DHT22;7423;48.722;9.350;2022-10-17T05:11:26;14.80;99.90
14670;DHT22;7423;48.722;9.350;2022-10-17T05:13:59;14.80;99.90
14670;DHT22;7423;48.722;9.350;2022-10-17T05:16:27;14.80;99.90
14670;DHT22;7423;48.722;9.350;2022-10-17T05:18:56;14.80;99.90
14670;DHT22;7423;48.722;9.350;2022-10-17T05:21:25;14.80;99.90
14670;DHT22;7423;48.722;9.350;2022-10-17T05:23:53;14.80;99.90
14670;DHT22;7423;48.722;9.350;2022-10-17T05:26:20;14.80;99.90
14670;DHT22;7423;48.722;9.350;2022-10-17T05:28:47;14.80;99.90
14670;DHT22;7423;48.722;9.350;2022-10-17T05:31:14;14.80;99.90
14670;DHT22;7423;48.722;9.350;2022-10-17T05:33:41;14.80;99.90
14670;DHT22;7423;48.722;9.350;2022-10-17T05:36:09;14.90;99.90
14670;DHT22;7423;48.722;9.350;2022-10-17T05:38:36;14.80;99.90
14670;DHT22;7423;48.722;9.350;2022-10-17T05:41:04;14.80;99.90
14670;DHT22;7423;48.722;9.350;2022-10-17T05:43:32;14.90;99.90
14670;DHT22;7423;48.722;9.350;2022-10-17T05:46:02;14.90;99.90
14670;DHT22;7423;48.722;9.350;2022-10-17T05:48:33;14.80;99.90
14670;DHT22;7423;48.722;9.350;2022-10-17T05:51:01;14.80;99.90
14670;DHT22;7423;48.722;9.350;2022-10-17T05:53:37;14.80;99.90
14670;DHT22;7423;48.722;9.350;2022-10-17T05:56:07;14.80;99.90
14670;DHT22;7423;48.722;9.350;2022-10-17T05:58:39;14.80;99.90
14670;DHT22;7423;48.722;9.350;2022-10-17T06:01:17;14.80;99.90
14670;DHT22;7423;48.722;9.350;2022-10-17T06:03:44;14.90;99.90
14670;DHT22;7423;48.722;9.350;2022-10-17T06:06:12;14.90;99.90
14670;DHT22;7423;48.722;9.350;2022-10-17T06:08:39;14.90;99.90
14670;DHT22;7423;48.722;9.350;2022-10-17T06:11:06;14.90;99.90
14670;DHT22;7423;48.722;9.350;2022-10-17T06:13:37;14.90;99.90
14670;DHT22;7423;48.722;9.350;2022-10-17T06:16:05;14.80;99.90
14670;DHT22;7423;48.722;9.350;2022-10-17T06:18:32;14.90;99.90
14670;DHT22;7423;48.722;9.350;2022-10-17T06:21:07;14.90;99.90
14670;DHT22;7423;48.722;9.350;2022-10-17T06:23:36;14.90;99.90
14670;DHT22;7423;48.722;9.350;2022-10-17T06:26:04;14.90;99.90
14670;DHT22;7423;48.722;9.350;2022-10-17T06:28:32;14.90;99.90
14670;DHT22;7423;48.722;9.350;2022-10-17T06:31:06;14.90;99.90
14670;DHT22;7423;48.722;9.350;2022-10-17T06:33:35;14.90;99.90
14670;DHT22;7423;48.722;9.350;2022-10-17T06:36:03;14.90;99.90
14670;DHT22;7423;48.722;9.350;2022-10-17T06:38:32;14.90;99.90
14670;DHT22;7423;48.722;9.350;2022-10-17T06:41:18;14.90;99.90
14670;DHT22;7423;48.722;9.350;2022-10-17T06:43:46;14.90;99.90
14670;DHT22;7423;48.722;9.350;2022-10-17T06:46:15;14.90;99.90
14670;DHT22;7423;48.722;9.350;2022-10-17T06:48:43;14.90;99.90
14670;DHT22;7423;48.722;9.350;2022-10-17T06:51:10;14.90;99.90
14670;DHT22;7423;48.722;9.350;2022-10-17T06:53:39;14.90;99.90
14670;DHT22;7423;48.722;9.350;2022-10-17T06:56:07;14.90;99.90
14670;DHT22;7423;48.722;9.350;2022-10-17T06:58:36;15.00;99.90
14670;DHT22;7423;48.722;9.350;2022-10-17T07:01:11;15.00;99.90
14670;DHT22;7423;48.722;9.350;2022-10-17T07:03:39;15.00;99.90
14670;DHT22;7423;48.722;9.350;2022-10-17T07:06:06;15.00;99.90
14670;DHT22;7423;48.722;9.350;2022-10-17T07:08:34;15.00;99.90
14670;DHT22;7423;48.722;9.350;2022-10-17T07:11:14;15.00;99.90
14670;DHT22;7423;48.722;9.350;2022-10-17T07:13:44;15.00;99.90
14670;DHT22;7423;48.722;9.350;2022-10-17T07:16:11;15.10;99.90
14670;DHT22;7423;48.722;9.350;2022-10-17T07:18:39;15.10;99.90
14670;DHT22;7423;48.722;9.350;2022-10-17T07:21:06;15.10;99.90
14670;DHT22;7423;48.722;9.350;2022-10-17T07:23:35;15.20;99.90
14670;DHT22;7423;48.722;9.350;2022-10-17T07:26:05;15.20;99.90
14670;DHT22;7423;48.722;9.350;2022-10-17T07:28:40;15.20;99.90
14670;DHT22;7423;48.722;9.350;2022-10-17T07:31:16;15.20;99.90
14670;DHT22;7423;48.722;9.350;2022-10-17T07:33:45;15.20;99.90
14670;DHT22;7423;48.722;9.350;2022-10-17T07:36:17;15.30;99.90
14670;DHT22;7423;48.722;9.350;2022-10-17T07:38:44;15.40;99.90
14670;DHT22;7423;48.722;9.350;2022-10-17T07:41:11;15.40;99.90
14670;DHT22;7423;48.722;9.350;2022-10-17T07:43:46;15.50;99.90
14670;DHT22;7423;48.722;9.350;2022-10-17T07:46:13;15.60;99.90
14670;DHT22;7423;48.722;9.350;2022-10-17T07:48:40;15.70;99.90
14670;DHT22;7423;48.722;9.350;2022-10-17T07:51:08;15.70;99.90
14670;DHT22;7423;48.722;9.350;2022-10-17T07:53:36;15.70;99.90
14670;DHT22;7423;48.722;9.350;2022-10-17T07:56:08;15.80;99.90
14670;DHT22;7423;48.722;9.350;2022-10-17T07:58:35;15.80;99.90
14670;DHT22;7423;48.722;9.350;2022-10-17T08:01:05;15.90;99.90
14670;DHT22;7423;48.722;9.350;2022-10-17T08:03:46;15.90;99.90
14670;DHT22;7423;48.722;9.350;2022-10-17T08:06:16;16.00;99.90
14670;DHT22;7423;48.722;9.350;2022-10-17T08:08:43;16.00;99.90
14670;DHT22;7423;48.722;9.350;2022-10-17T08:11:12;16.10;99.90
14670;DHT22;7423;48.722;9.350;2022-10-17T08:13:40;16.10;99.90
14670;DHT22;7423;48.722;9.350;2022-10-17T08:16:09;16.10;99.90
14670;DHT22;7423;48.722;9.350;2022-10-17T08:18:39;16.20;99.90
14670;DHT22;7423;48.722;9.350;2022-10-17T08:21:07;16.30;99.90
14670;DHT22;7423;48.722;9.350;2022-10-17T08:23:35;16.20;99.90
14670;DHT22;7423;48.722;9.350;2022-10-17T08:26:04;16.30;99.90
14670;DHT22;7423;48.722;9.350;2022-10-17T08:28:35;16.30;99.90
14670;DHT22;7423;48.722;9.350;2022-10-17T08:31:06;16.40;99.90
14670;DHT22;7423;48.722;9.350;2022-10-17T08:33:37;16.50;99.90
14670;DHT22;7423;48.722;9.350;2022-10-17T08:36:04;16.50;99.90
14670;DHT22;7423;48.722;9.350;2022-10-17T08:38:33;16.50;99.90
14670;DHT22;7423;48.722;9.350;2022-10-17T08:47:02;16.70;99.90
14670;DHT22;7423;48.722;9.350;2022-10-17T08:55:15;16.90;99.90
14670;DHT22;7423;48.722;9.350;2022-10-17T08:57:48;17.00;99.90
14670;DHT22;7423;48.722;9.350;2022-10-17T09:00:20;17.00;99.90
14670;DHT22;7423;48.722;9.350;2022-10-17T09:03:18;17.10;99.90
14670;DHT22;7423;48.722;9.350;2022-10-17T09:05:55;17.10;99.90
14670;DHT22;7423;48.722;9.350;2022-10-17T09:23:12;17.50;99.90
14670;DHT22;7423;48.722;9.350;2022-10-17T09:25:43;17.50;99.90
14670;DHT22;7423;48.722;9.350;2022-10-17T09:28:29;17.70;99.90
14670;DHT22;7423;48.722;9.350;2022-10-17T09:31:24;17.70;99.90
14670;DHT22;7423;48.722;9.350;2022-10-17T09:33:56;17.70;99.90
14670;DHT22;7423;48.722;9.350;2022-10-17T09:39:10;17.90;99.90
14670;DHT22;7423;48.722;9.350;2022-10-17T09:41:47;18.00;99.90
14670;DHT22;7423;48.722;9.350;2022-10-17T09:44:35;18.00;99.90
14670;DHT22;7423;48.722;9.350;2022-10-17T09:47:42;18.10;99.90
14670;DHT22;7423;48.722;9.350;2022-10-17T09:50:31;18.20;99.90
14670;DHT22;7423;48.722;9.350;2022-10-17T09:53:24;18.30;99.90
14670;DHT22;7423;48.722;9.350;2022-10-17T09:55:57;18.30;99.90
14670;DHT22;7423;48.722;9.350;2022-10-17T10:01:26;18.50;99.90
14670;DHT22;7423;48.722;9.350;2022-10-17T10:04:15;18.50;99.90
14670;DHT22;7423;48.722;9.350;2022-10-17T10:07:03;18.50;99.90
14670;DHT22;7423;48.722;9.350;2022-10-17T10:09:33;18.60;99.90
14670;DHT22;7423;48.722;9.350;2022-10-17T10:12:14;18.70;99.90
14670;DHT22;7423;48.722;9.350;2022-10-17T10:14:44;18.80;99.90
14670;DHT22;7423;48.722;9.350;2022-10-17T10:17:40;18.80;99.90
14670;DHT22;7423;48.722;9.350;2022-10-17T10:20:29;18.90;99.90
14670;DHT22;7423;48.722;9.350;2022-10-17T10:23:16;19.00;99.90
14670;DHT22;7423;48.722;9.350;2022-10-17T10:25:56;19.00;99.90
14670;DHT22;7423;48.722;9.350;2022-10-17T10:28:29;19.10;99.90
14670;DHT22;7423;48.722;9.350;2022-10-17T10:31:04;19.20;99.90
14670;DHT22;7423;48.722;9.350;2022-10-17T10:33:36;19.30;99.90
14670;DHT22;7423;48.722;9.350;2022-10-17T10:36:07;19.30;99.90
14670;DHT22;7423;48.722;9.350;2022-10-17T10:38:35;19.30;99.90
14670;DHT22;7423;48.722;9.350;2022-10-17T10:41:07;19.40;99.90
14670;DHT22;7423;48.722;9.350;2022-10-17T10:43:41;19.50;99.90
14670;DHT22;7423;48.722;9.350;2022-10-17T10:46:25;19.50;99.90
14670;DHT22;7423;48.722;9.350;2022-10-17T10:48:58;19.60;99.90
14670;DHT22;7423;48.722;9.350;2022-10-17T10:51:50;19.60;99.90
14670;DHT22;7423;48.722;9.350;2022-10-17T10:54:53;19.70;99.90
14670;DHT22;7423;48.722;9.350;2022-10-17T10:57:25;19.80;99.90
14670;DHT22;7423;48.722;9.350;2022-10-17T11:00:02;19.90;99.90
14670;DHT22;7423;48.722;9.350;2022-10-17T11:03:15;19.90;99.90
14670;DHT22;7423;48.722;9.350;2022-10-17T11:05:51;20.00;99.90
14670;DHT22;7423;48.722;9.350;2022-10-17T11:08:42;20.10;99.90
14670;DHT22;7423;48.722;9.350;2022-10-17T11:16:46;20.20;99.90
14670;DHT22;7423;48.722;9.350;2022-10-17T11:20:00;20.30;99.90
14670;DHT22;7423;48.722;9.350;2022-10-17T11:22:54;20.40;99.90
14670;DHT22;7423;48.722;9.350;2022-10-17T11:25:34;20.40;99.90
14670;DHT22;7423;48.722;9.350;2022-10-17T11:28:12;20.30;99.90
14670;DHT22;7423;48.722;9.350;2022-10-17T11:31:00;20.50;99.90
14670;DHT22;7423;48.722;9.350;2022-10-17T11:33:56;20.60;99.90
14670;DHT22;7423;48.722;9.350;2022-10-17T11:36:28;20.60;99.90
14670;DHT22;7423;48.722;9.350;2022-10-17T11:39:11;20.80;99.90
14670;DHT22;7423;48.722;9.350;2022-10-17T11:41:55;20.80;99.90
14670;DHT22;7423;48.722;9.350;2022-10-17T11:44:36;20.80;99.90
14670;DHT22;7423;48.722;9.350;2022-10-17T11:47:28;20.90;99.90
14670;DHT22;7423;48.722;9.350;2022-10-17T11:53:27;21.00;99.90
14670;DHT22;7423;48.722;9.350;2022-10-17T11:55:59;21.10;99.90
14670;DHT22;7423;48.722;9.350;2022-10-17T11:58:49;21.20;99.90
14670;DHT22;7423;48.722;9.350;2022-10-17T12:01:51;21.20;99.90
14670;DHT22;7423;48.722;9.350;2022-10-17T12:04:44;21.30;99.90
14670;DHT22;7423;48.722;9.350;2022-10-17T12:07:44;21.40;99.90
14670;DHT22;7423;48.722;9.350;2022-10-17T12:10:34;21.50;99.90
14670;DHT22;7423;48.722;9.350;2022-10-17T12:21:26;21.80;99.90
14670;DHT22;7423;48.722;9.350;2022-10-17T12:23:57;21.90;99.90
14670;DHT22;7423;48.722;9.350;2022-10-17T12:26:28;22.00;99.90
14670;DHT22;7423;48.722;9.350;2022-10-17T12:28:56;22.10;99.90
14670;DHT22;7423;48.722;9.350;2022-10-17T12:31:24;22.30;99.90
14670;DHT22;7423;48.722;9.350;2022-10-17T12:34:03;22.50;99.90
14670;DHT22;7423;48.722;9.350;2022-10-17T12:46:48;23.30;99.90
14670;DHT22;7423;48.722;9.350;2022-10-17T12:49:41;23.50;99.90
14670;DHT22;7423;48.722;9.350;2022-10-17T12:52:28;23.60;99.90
14670;DHT22;7423;48.722;9.350;2022-10-17T12:55:25;23.70;99.90
14670;DHT22;7423;48.722;9.350;2022-10-17T12:58:09;23.80;99.90
14670;DHT22;7423;48.722;9.350;2022-10-17T13:00:51;23.90;99.90
14670;DHT22;7423;48.722;9.350;2022-10-17T13:03:45;23.90;99.90
14670;DHT22;7423;48.722;9.350;2022-10-17T13:06:21;24.00;99.90
14670;DHT22;7423;48.722;9.350;2022-10-17T13:09:00;24.10;99.90
14670;DHT22;7423;48.722;9.350;2022-10-17T13:11:33;24.10;99.90
14670;DHT22;7423;48.722;9.350;2022-10-17T13:14:04;24.20;99.90
14670;DHT22;7423;48.722;9.350;2022-10-17T13:16:39;24.30;99.90
14670;DHT22;7423;48.722;9.350;2022-10-17T13:19:18;24.30;99.90
14670;DHT22;7423;48.722;9.350;2022-10-17T13:22:00;24.40;99.90
14670;DHT22;7423;48.722;9.350;2022-10-17T13:24:39;24.50;99.90
14670;DHT22;7423;48.722;9.350;2022-10-17T13:27:29;24.40;99.90
14670;DHT22;7423;48.722;9.350;2022-10-17T13:30:00;24.50;99.90
14670;DHT22;7423;48.722;9.350;2022-10-17T13:32:37;24.50;99.90
14670;DHT22;7423;48.722;9.350;2022-10-17T13:35:14;24.60;99.90
14670;DHT22;7423;48.722;9.350;2022-10-17T13:38:04;24.60;99.90
14670;DHT22;7423;48.722;9.350;2022-10-17T13:40:42;24.70;99.90
14670;DHT22;7423;48.722;9.350;2022-10-17T13:43:20;24.70;99.90
14670;DHT22;7423;48.722;9.350;2022-10-17T13:46:25;24.80;99.90
14670;DHT22;7423;48.722;9.350;2022-10-17T13:52:01;24.80;99.90
14670;DHT22;7423;48.722;9.350;2022-10-17T13:57:04;25.00;99.90
14670;DHT22;7423;48.722;9.350;2022-10-17T13:59:40;25.10;99.90
14670;DHT22;7423;48.722;9.350;2022-10-17T14:02:19;25.20;99.90
14670;DHT22;7423;48.722;9.350;2022-10-17T14:07:55;25.20;99.90
14670;DHT22;7423;48.722;9.350;2022-10-17T14:10:39;25.20;99.90
14670;DHT22;7423;48.722;9.350;2022-10-17T14:13:21;25.30;99.90
14670;DHT22;7423;48.722;9.350;2022-10-17T14:15:52;25.30;99.90
14670;DHT22;7423;48.722;9.350;2022-10-17T14:18:24;25.30;99.90
14670;DHT22;7423;48.722;9.350;2022-10-17T14:21:02;25.30;99.90
14670;DHT22;7423;48.722;9.350;2022-10-17T14:23:51;25.30;99.90
14670;DHT22;7423;48.722;9.350;2022-10-17T14:26:49;25.20;99.90
14670;DHT22;7423;48.722;9.350;2022-10-17T14:29:27;25.20;99.90
14670;DHT22;7423;48.722;9.350;2022-10-17T14:32:05;25.10;99.90
14670;DHT22;7423;48.722;9.350;2022-10-17T14:34:36;25.10;99.90
14670;DHT22;7423;48.722;9.350;2022-10-17T14:39:49;25.00;99.90
14670;DHT22;7423;48.722;9.350;2022-10-17T14:42:21;25.00;99.90
14670;DHT22;7423;48.722;9.350;2022-10-17T14:44:49;25.00;99.90
14670;DHT22;7423;48.722;9.350;2022-10-17T14:47:20;25.00;99.90
14670;DHT22;7423;48.722;9.350;2022-10-17T14:52:35;25.00;99.90
14670;DHT22;7423;48.722;9.350;2022-10-17T14:55:22;25.00;99.90
14670;DHT22;7423;48.722;9.350;2022-10-17T14:57:51;25.00;99.90
14670;DHT22;7423;48.722;9.350;2022-10-17T15:00:19;25.00;99.90
14670;DHT22;7423;48.722;9.350;2022-10-17T15:02:48;25.00;99.90
14670;DHT22;7423;48.722;9.350;2022-10-17T15:05:16;25.00;99.90
14670;DHT22;7423;48.722;9.350;2022-10-17T15:07:43;25.00;99.90
14670;DHT22;7423;48.722;9.350;2022-10-17T15:13:01;25.00;99.90
14670;DHT22;7423;48.722;9.350;2022-10-17T15:15:48;25.00;99.90
14670;DHT22;7423;48.722;9.350;2022-10-17T15:18:17;25.00;99.90
14670;DHT22;7423;48.722;9.350;2022-10-17T15:20:44;25.00;99.90
14670;DHT22;7423;48.722;9.350;2022-10-17T15:23:11;24.90;99.90
14670;DHT22;7423;48.722;9.350;2022-10-17T15:25:38;24.90;99.90
14670;DHT22;7423;48.722;9.350;2022-10-17T15:28:05;24.90;99.90
14670;DHT22;7423;48.722;9.350;2022-10-17T15:30:35;24.90;99.90
14670;DHT22;7423;48.722;9.350;2022-10-17T15:33:02;24.90;99.90
14670;DHT22;7423;48.722;9.350;2022-10-17T15:35:30;24.90;99.90
14670;DHT22;7423;48.722;9.350;2022-10-17T15:37:57;24.90;99.90
14670;DHT22;7423;48.722;9.350;2022-10-17T15:40:27;24.80;99.90
14670;DHT22;7423;48.722;9.350;2022-10-17T15:42:55;24.80;99.90
14670;DHT22;7423;48.722;9.350;2022-10-17T15:45:22;24.80;99.90
14670;DHT22;7423;48.722;9.350;2022-10-17T15:47:55;24.80;99.90
14670;DHT22;7423;48.722;9.350;2022-10-17T15:50:23;24.80;99.90
14670;DHT22;7423;48.722;9.350;2022-10-17T15:52:51;24.80;99.90
14670;DHT22;7423;48.722;9.350;2022-10-17T15:55:18;24.70;99.90
14670;DHT22;7423;48.722;9.350;2022-10-17T15:57:47;24.60;99.90
14670;DHT22;7423;48.722;9.350;2022-10-17T16:00:20;24.60;99.90
14670;DHT22;7423;48.722;9.350;2022-10-17T16:02:49;24.50;99.90
14670;DHT22;7423;48.722;9.350;2022-10-17T16:05:22;24.30;99.90
14670;DHT22;7423;48.722;9.350;2022-10-17T16:07:55;24.10;99.90
14670;DHT22;7423;48.722;9.350;2022-10-17T16:10:23;24.10;99.90
14670;DHT22;7423;48.722;9.350;2022-10-17T16:12:51;24.10;99.90
14670;DHT22;7423;48.722;9.350;2022-10-17T16:15:23;24.00;99.90
14670;DHT22;7423;48.722;9.350;2022-10-17T16:17:51;24.00;99.90
14670;DHT22;7423;48.722;9.350;2022-10-17T16:20:20;23.90;99.90
14670;DHT22;7423;48.722;9.350;2022-10-17T16:22:47;23.80;99.90
14670;DHT22;7423;48.722;9.350;2022-10-17T16:25:23;23.60;99.90
14670;DHT22;7423;48.722;9.350;2022-10-17T16:27:54;23.50;99.90
14670;DHT22;7423;48.722;9.350;2022-10-17T16:30:24;23.40;99.90
14670;DHT22;7423;48.722;9.350;2022-10-17T16:32:52;23.10;99.90
14670;DHT22;7423;48.722;9.350;2022-10-17T16:35:25;23.20;99.90
14670;DHT22;7423;48.722;9.350;2022-10-17T16:38:00;23.20;99.90
14670;DHT22;7423;48.722;9.350;2022-10-17T16:40:27;23.20;99.90
14670;DHT22;7423;48.722;9.350;2022-10-17T16:42:54;23.20;99.90
14670;DHT22;7423;48.722;9.350;2022-10-17T16:45:21;23.10;99.90
14670;DHT22;7423;48.722;9.350;2022-10-17T16:47:48;23.00;99.90
14670;DHT22;7423;48.722;9.350;2022-10-17T16:50:16;22.90;99.90
14670;DHT22;7423;48.722;9.350;2022-10-17T16:52:43;22.80;99.90
14670;DHT22;7423;48.722;9.350;2022-10-17T16:55:10;22.80;99.90
14670;DHT22;7423;48.722;9.350;2022-10-17T16:57:37;22.80;99.90
14670;DHT22;7423;48.722;9.350;2022-10-17T17:00:05;22.70;99.90
14670;DHT22;7423;48.722;9.350;2022-10-17T17:02:32;22.60;99.90
14670;DHT22;7423;48.722;9.350;2022-10-17T17:04:59;22.60;99.90
14670;DHT22;7423;48.722;9.350;2022-10-17T17:07:26;22.50;99.90
14670;DHT22;7423;48.722;9.350;2022-10-17T17:09:55;22.50;99.90
14670;DHT22;7423;48.722;9.350;2022-10-17T17:12:22;22.40;99.90
14670;DHT22;7423;48.722;9.350;2022-10-17T17:14:49;22.20;99.90
14670;DHT22;7423;48.722;9.350;2022-10-17T17:17:16;22.20;99.90
14670;DHT22;7423;48.722;9.350;2022-10-17T17:20:04;22.10;99.90
14670;DHT22;7423;48.722;9.350;2022-10-17T17:22:32;22.00;99.90
14670;DHT22;7423;48.722;9.350;2022-10-17T17:24:58;21.90;99.90
14670;DHT22;7423;48.722;9.350;2022-10-17T17:27:28;21.90;99.90
14670;DHT22;7423;48.722;9.350;2022-10-17T17:29:56;21.80;99.90
14670;DHT22;7423;48.722;9.350;2022-10-17T17:32:22;21.80;99.90
14670;DHT22;7423;48.722;9.350;2022-10-17T17:34:49;21.70;99.90
14670;DHT22;7423;48.722;9.350;2022-10-17T17:37:16;21.60;99.90
14670;DHT22;7423;48.722;9.350;2022-10-17T17:39:43;21.60;99.90
14670;DHT22;7423;48.722;9.350;2022-10-17T17:42:10;21.60;99.90
14670;DHT22;7423;48.722;9.350;2022-10-17T17:44:37;21.50;99.90
14670;DHT22;7423;48.722;9.350;2022-10-17T17:47:04;21.50;99.90
14670;DHT22;7423;48.722;9.350;2022-10-17T17:49:30;21.40;99.90
14670;DHT22;7423;48.722;9.350;2022-10-17T17:51:57;21.40;99.90
14670;DHT22;7423;48.722;9.350;2022-10-17T17:54:24;21.30;99.90
14670;DHT22;7423;48.722;9.350;2022-10-17T17:56:51;21.30;99.90
14670;DHT22;7423;48.722;9.350;2022-10-17T17:59:18;21.20;99.90
14670;DHT22;7423;48.722;9.350;2022-10-17T18:01:45;21.20;99.90
14670;DHT22;7423;48.722;9.350;2022-10-17T18:04:12;21.20;99.90